sensor_id;sensor_type;location;lat;lon;timestamp;P1;durP1;ratioP1;P2;durP2;ratioP2
2868;SDS011;1442;47.448;8.582;2023-03-01T00:02:04;28.98;;;18.27;;
2868;SDS011;1442;47.448;8.582;2023-03-01T00:04:31;36.30;;;19.40;;
2868;SDS011;1442;47.448;8.582;2023-03-01T00:07:00;34.45;;;18.42;;
2868;SDS011;1442;47.448;8.582;2023-03-01T00:09:27;31.15;;;17.75;;
2868;SDS011;1442;47.448;8.582;2023-03-01T00:11:54;30.27;;;18.23;;
2868;SDS011;1442;47.448;8.582;2023-03-01T00:14:23;32.45;;;18.73;;
2868;SDS011;1442;47.448;8.582;2023-03-01T00:16:50;33.42;;;17.98;;
2868;SDS011;1442;47.448;8.582;2023-03-01T00:19:18;30.25;;;17.73;;
2868;SDS011;1442;47.448;8.582;2023-03-01T00:21:47;29.33;;;17.48;;
2868;SDS011;1442;47.448;8.582;2023-03-01T00:24:14;36.25;;;19.25;;
2868;SDS011;1442;47.448;8.582;2023-03-01T00:26:41;32.75;;;18.00;;
2868;SDS011;1442;47.448;8.582;2023-03-01T00:29:09;31.77;;;16.65;;
2868;SDS011;1442;47.448;8.582;2023-03-01T00:31:37;33.22;;;17.73;;
2868;SDS011;1442;47.448;8.582;2023-03-01T00:34:04;29.92;;;17.63;;
2868;SDS011;1442;47.448;8.582;2023-03-01T00:36:32;29.65;;;17.75;;
2868;SDS011;1442;47.448;8.582;2023-03-01T00:39:00;30.95;;;17.55;;
2868;SDS011;1442;47.448;8.582;2023-03-01T00:41:28;30.38;;;17.55;;
2868;SDS011;1442;47.448;8.582;2023-03-01T00:43:55;30.25;;;16.77;;
2868;SDS011;1442;47.448;8.582;2023-03-01T00:46:23;29.80;;;17.88;;
2868;SDS011;1442;47.448;8.582;2023-03-01T00:48:52;32.05;;;17.95;;
2868;SDS011;1442;47.448;8.582;2023-03-01T00:51:20;33.75;;;16.90;;
2868;SDS011;1442;47.448;8.582;2023-03-01T00:53:51;30.55;;;17.73;;
2868;SDS011;1442;47.448;8.582;2023-03-01T00:56:18;30.83;;;17.13;;
2868;SDS011;1442;47.448;8.582;2023-03-01T00:58:46;31.48;;;17.73;;
2868;SDS011;1442;47.448;8.582;2023-03-01T01:01:15;38.05;;;18.70;;
2868;SDS011;1442;47.448;8.582;2023-03-01T01:03:46;31.92;;;17.08;;
2868;SDS011;1442;47.448;8.582;2023-03-01T01:06:16;30.63;;;17.85;;
2868;SDS011;1442;47.448;8.582;2023-03-01T01:08:43;27.52;;;16.30;;
2868;SDS011;1442;47.448;8.582;2023-03-01T01:11:10;38.92;;;18.88;;
2868;SDS011;1442;47.448;8.582;2023-03-01T01:13:38;28.23;;;17.00;;
2868;SDS011;1442;47.448;8.582;2023-03-01T01:16:05;28.85;;;17.30;;
2868;SDS011;1442;47.448;8.582;2023-03-01T01:18:33;33.38;;;18.80;;
2868;SDS011;1442;47.448;8.582;2023-03-01T01:21:03;31.33;;;17.35;;
2868;SDS011;1442;47.448;8.582;2023-03-01T01:23:31;34.38;;;18.27;;
2868;SDS011;1442;47.448;8.582;2023-03-01T01:26:02;32.35;;;18.33;;
2868;SDS011;1442;47.448;8.582;2023-03-01T01:28:29;30.67;;;17.90;;
2868;SDS011;1442;47.448;8.582;2023-03-01T01:30:57;32.47;;;17.70;;
2868;SDS011;1442;47.448;8.582;2023-03-01T01:33:24;32.55;;;17.77;;
2868;SDS011;1442;47.448;8.582;2023-03-01T01:35:51;31.85;;;16.73;;
2868;SDS011;1442;47.448;8.582;2023-03-01T01:38:19;31.80;;;18.50;;
2868;SDS011;1442;47.448;8.582;2023-03-01T01:40:48;29.80;;;16.75;;
2868;SDS011;1442;47.448;8.582;2023-03-01T01:43:19;29.95;;;16.75;;
2868;SDS011;1442;47.448;8.582;2023-03-01T01:45:47;33.05;;;17.73;;
2868;SDS011;1442;47.448;8.582;2023-03-01T01:48:16;31.42;;;18.48;;
2868;SDS011;1442;47.448;8.582;2023-03-01T01:50:44;31.90;;;18.60;;
2868;SDS011;1442;47.448;8.582;2023-03-01T01:53:14;30.95;;;17.33;;
2868;SDS011;1442;47.448;8.582;2023-03-01T01:55:43;31.48;;;17.00;;
2868;SDS011;1442;47.448;8.582;2023-03-01T01:58:14;31.02;;;18.00;;
2868;SDS011;1442;47.448;8.582;2023-03-01T02:00:42;29.55;;;17.30;;
2868;SDS011;1442;47.448;8.582;2023-03-01T02:03:10;28.50;;;16.52;;
2868;SDS011;1442;47.448;8.582;2023-03-01T02:05:38;30.92;;;17.33;;
2868;SDS011;1442;47.448;8.582;2023-03-01T02:08:08;34.88;;;17.92;;
2868;SDS011;1442;47.448;8.582;2023-03-01T02:10:37;30.67;;;17.25;;
2868;SDS011;1442;47.448;8.582;2023-03-01T02:13:04;28.60;;;16.35;;
2868;SDS011;1442;47.448;8.582;2023-03-01T02:15:33;30.55;;;17.88;;
2868;SDS011;1442;47.448;8.582;2023-03-01T02:18:01;26.40;;;16.98;;
2868;SDS011;1442;47.448;8.582;2023-03-01T02:20:30;30.27;;;17.67;;
2868;SDS011;1442;47.448;8.582;2023-03-01T02:22:59;29.45;;;17.33;;
2868;SDS011;1442;47.448;8.582;2023-03-01T02:25:29;29.83;;;17.55;;
2868;SDS011;1442;47.448;8.582;2023-03-01T02:27:58;30.67;;;16.77;;
2868;SDS011;1442;47.448;8.582;2023-03-01T02:30:29;35.50;;;19.92;;
2868;SDS011;1442;47.448;8.582;2023-03-01T02:32:57;28.33;;;17.35;;
2868;SDS011;1442;47.448;8.582;2023-03-01T02:35:29;31.60;;;17.58;;
2868;SDS011;1442;47.448;8.582;2023-03-01T02:37:57;29.00;;;16.70;;
2868;SDS011;1442;47.448;8.582;2023-03-01T02:40:26;30.92;;;17.00;;
2868;SDS011;1442;47.448;8.582;2023-03-01T02:42:55;30.25;;;17.73;;
2868;SDS011;1442;47.448;8.582;2023-03-01T02:45:23;35.50;;;17.83;;
2868;SDS011;1442;47.448;8.582;2023-03-01T02:47:52;30.98;;;18.02;;
2868;SDS011;1442;47.448;8.582;2023-03-01T02:50:23;30.65;;;16.75;;
2868;SDS011;1442;47.448;8.582;2023-03-01T02:52:53;28.27;;;17.52;;
2868;SDS011;1442;47.448;8.582;2023-03-01T02:55:23;28.15;;;17.65;;
2868;SDS011;1442;47.448;8.582;2023-03-01T02:57:50;30.38;;;17.33;;
2868;SDS011;1442;47.448;8.582;2023-03-01T03:00:18;29.55;;;17.38;;
2868;SDS011;1442;47.448;8.582;2023-03-01T03:02:46;30.95;;;18.25;;
2868;SDS011;1442;47.448;8.582;2023-03-01T03:05:16;31.05;;;18.02;;
2868;SDS011;1442;47.448;8.582;2023-03-01T03:07:45;27.27;;;16.95;;
2868;SDS011;1442;47.448;8.582;2023-03-01T03:10:13;29.85;;;17.23;;
2868;SDS011;1442;47.448;8.582;2023-03-01T03:12:40;29.80;;;17.90;;
2868;SDS011;1442;47.448;8.582;2023-03-01T03:15:08;33.70;;;18.27;;
2868;SDS011;1442;47.448;8.582;2023-03-01T03:17:37;34.30;;;18.33;;
2868;SDS011;1442;47.448;8.582;2023-03-01T03:20:06;33.55;;;18.08;;
2868;SDS011;1442;47.448;8.582;2023-03-01T03:22:37;31.63;;;18.25;;
2868;SDS011;1442;47.448;8.582;2023-03-01T03:25:05;30.80;;;17.88;;
2868;SDS011;1442;47.448;8.582;2023-03-01T03:27:35;30.13;;;17.27;;
2868;SDS011;1442;47.448;8.582;2023-03-01T03:30:02;31.88;;;18.58;;
2868;SDS011;1442;47.448;8.582;2023-03-01T03:32:33;31.75;;;16.90;;
2868;SDS011;1442;47.448;8.582;2023-03-01T03:35:01;27.88;;;17.48;;
2868;SDS011;1442;47.448;8.582;2023-03-01T03:37:33;36.63;;;17.92;;
2868;SDS011;1442;47.448;8.582;2023-03-01T03:40:19;32.20;;;18.33;;
2868;SDS011;1442;47.448;8.582;2023-03-01T03:42:46;33.63;;;19.00;;
2868;SDS011;1442;47.448;8.582;2023-03-01T03:45:14;31.65;;;16.88;;
2868;SDS011;1442;47.448;8.582;2023-03-01T03:47:41;33.97;;;17.85;;
2868;SDS011;1442;47.448;8.582;2023-03-01T03:50:09;31.05;;;16.27;;
2868;SDS011;1442;47.448;8.582;2023-03-01T03:52:37;34.00;;;17.52;;
2868;SDS011;1442;47.448;8.582;2023-03-01T03:55:04;34.25;;;18.00;;
2868;SDS011;1442;47.448;8.582;2023-03-01T03:57:37;32.43;;;18.23;;
2868;SDS011;1442;47.448;8.582;2023-03-01T04:00:05;31.02;;;17.88;;
2868;SDS011;1442;47.448;8.582;2023-03-01T04:02:37;33.08;;;18.58;;
2868;SDS011;1442;47.448;8.582;2023-03-01T04:05:05;33.58;;;18.50;;
2868;SDS011;1442;47.448;8.582;2023-03-01T04:07:33;33.03;;;18.30;;
2868;SDS011;1442;47.448;8.582;2023-03-01T04:10:00;30.63;;;17.58;;
2868;SDS011;1442;47.448;8.582;2023-03-01T04:12:27;36.65;;;18.65;;
2868;SDS011;1442;47.448;8.582;2023-03-01T04:14:55;31.17;;;18.42;;
2868;SDS011;1442;47.448;8.582;2023-03-01T04:17:23;34.33;;;18.50;;
2868;SDS011;1442;47.448;8.582;2023-03-01T04:19:50;38.17;;;19.30;;
2868;SDS011;1442;47.448;8.582;2023-03-01T04:22:18;32.38;;;18.33;;
2868;SDS011;1442;47.448;8.582;2023-03-01T04:24:45;33.92;;;17.88;;
2868;SDS011;1442;47.448;8.582;2023-03-01T04:27:12;34.40;;;18.50;;
2868;SDS011;1442;47.448;8.582;2023-03-01T04:29:39;33.70;;;18.67;;
2868;SDS011;1442;47.448;8.582;2023-03-01T04:32:08;33.28;;;18.98;;
2868;SDS011;1442;47.448;8.582;2023-03-01T04:34:35;30.90;;;18.00;;
2868;SDS011;1442;47.448;8.582;2023-03-01T04:37:02;38.67;;;19.50;;
2868;SDS011;1442;47.448;8.582;2023-03-01T04:39:30;35.55;;;19.48;;
2868;SDS011;1442;47.448;8.582;2023-03-01T04:41:57;35.33;;;19.85;;
2868;SDS011;1442;47.448;8.582;2023-03-01T04:44:24;32.08;;;18.73;;
2868;SDS011;1442;47.448;8.582;2023-03-01T04:46:52;39.10;;;19.65;;
2868;SDS011;1442;47.448;8.582;2023-03-01T04:49:20;36.15;;;19.42;;
2868;SDS011;1442;47.448;8.582;2023-03-01T04:51:47;32.70;;;18.25;;
2868;SDS011;1442;47.448;8.582;2023-03-01T04:54:15;34.15;;;18.52;;
2868;SDS011;1442;47.448;8.582;2023-03-01T04:56:42;32.53;;;18.08;;
2868;SDS011;1442;47.448;8.582;2023-03-01T04:59:09;35.58;;;19.08;;
2868;SDS011;1442;47.448;8.582;2023-03-01T05:01:37;34.08;;;18.58;;
2868;SDS011;1442;47.448;8.582;2023-03-01T05:04:07;38.83;;;19.05;;
2868;SDS011;1442;47.448;8.582;2023-03-01T05:06:39;36.67;;;19.10;;
2868;SDS011;1442;47.448;8.582;2023-03-01T05:09:06;34.55;;;20.35;;
2868;SDS011;1442;47.448;8.582;2023-03-01T05:11:34;36.92;;;19.05;;
2868;SDS011;1442;47.448;8.582;2023-03-01T05:14:02;38.00;;;19.77;;
2868;SDS011;1442;47.448;8.582;2023-03-01T05:16:29;36.03;;;19.67;;
2868;SDS011;1442;47.448;8.582;2023-03-01T05:18:57;38.55;;;20.70;;
2868;SDS011;1442;47.448;8.582;2023-03-01T05:21:24;36.33;;;19.02;;
2868;SDS011;1442;47.448;8.582;2023-03-01T05:23:53;38.63;;;19.92;;
2868;SDS011;1442;47.448;8.582;2023-03-01T05:26:20;37.50;;;19.45;;
2868;SDS011;1442;47.448;8.582;2023-03-01T05:28:52;39.70;;;20.33;;
2868;SDS011;1442;47.448;8.582;2023-03-01T05:31:23;36.90;;;20.33;;
2868;SDS011;1442;47.448;8.582;2023-03-01T05:33:50;38.40;;;20.85;;
2868;SDS011;1442;47.448;8.582;2023-03-01T05:36:17;35.70;;;20.27;;
2868;SDS011;1442;47.448;8.582;2023-03-01T05:38:45;36.25;;;19.52;;
2868;SDS011;1442;47.448;8.582;2023-03-01T05:41:15;37.00;;;19.27;;
2868;SDS011;1442;47.448;8.582;2023-03-01T05:43:42;39.15;;;19.95;;
2868;SDS011;1442;47.448;8.582;2023-03-01T05:46:10;37.95;;;19.92;;
2868;SDS011;1442;47.448;8.582;2023-03-01T05:48:38;39.53;;;19.75;;
2868;SDS011;1442;47.448;8.582;2023-03-01T05:51:05;37.22;;;19.75;;
2868;SDS011;1442;47.448;8.582;2023-03-01T05:53:32;38.65;;;19.83;;
2868;SDS011;1442;47.448;8.582;2023-03-01T05:55:59;36.63;;;20.00;;
2868;SDS011;1442;47.448;8.582;2023-03-01T05:58:30;41.83;;;20.38;;
2868;SDS011;1442;47.448;8.582;2023-03-01T06:00:57;40.67;;;20.33;;
2868;SDS011;1442;47.448;8.582;2023-03-01T06:03:25;37.15;;;19.73;;
2868;SDS011;1442;47.448;8.582;2023-03-01T06:05:55;36.05;;;19.33;;
2868;SDS011;1442;47.448;8.582;2023-03-01T06:08:22;35.40;;;20.17;;
2868;SDS011;1442;47.448;8.582;2023-03-01T06:10:51;36.45;;;19.15;;
2868;SDS011;1442;47.448;8.582;2023-03-01T06:13:19;37.78;;;19.35;;
2868;SDS011;1442;47.448;8.582;2023-03-01T06:15:47;38.08;;;20.50;;
2868;SDS011;1442;47.448;8.582;2023-03-01T06:18:14;34.55;;;19.20;;
2868;SDS011;1442;47.448;8.582;2023-03-01T06:20:41;40.38;;;20.70;;
2868;SDS011;1442;47.448;8.582;2023-03-01T06:23:09;39.05;;;20.17;;
2868;SDS011;1442;47.448;8.582;2023-03-01T06:25:36;38.60;;;21.15;;
2868;SDS011;1442;47.448;8.582;2023-03-01T06:28:04;39.65;;;20.98;;
2868;SDS011;1442;47.448;8.582;2023-03-01T06:30:31;48.30;;;22.55;;
2868;SDS011;1442;47.448;8.582;2023-03-01T06:32:59;51.03;;;22.83;;
2868;SDS011;1442;47.448;8.582;2023-03-01T06:35:28;44.97;;;22.80;;
2868;SDS011;1442;47.448;8.582;2023-03-01T06:37:56;41.78;;;21.40;;
2868;SDS011;1442;47.448;8.582;2023-03-01T06:40:24;44.92;;;22.27;;
2868;SDS011;1442;47.448;8.582;2023-03-01T06:42:51;43.25;;;21.52;;
2868;SDS011;1442;47.448;8.582;2023-03-01T06:45:18;42.85;;;21.33;;
2868;SDS011;1442;47.448;8.582;2023-03-01T06:47:46;37.83;;;20.67;;
2868;SDS011;1442;47.448;8.582;2023-03-01T06:50:15;35.90;;;19.25;;
2868;SDS011;1442;47.448;8.582;2023-03-01T06:52:42;40.47;;;20.23;;
2868;SDS011;1442;47.448;8.582;2023-03-01T06:55:10;37.75;;;19.10;;
2868;SDS011;1442;47.448;8.582;2023-03-01T06:57:37;36.67;;;19.40;;
2868;SDS011;1442;47.448;8.582;2023-03-01T07:00:05;35.53;;;18.88;;
2868;SDS011;1442;47.448;8.582;2023-03-01T07:02:33;34.35;;;18.25;;
2868;SDS011;1442;47.448;8.582;2023-03-01T07:05:00;33.05;;;18.42;;
2868;SDS011;1442;47.448;8.582;2023-03-01T07:07:28;42.13;;;19.90;;
2868;SDS011;1442;47.448;8.582;2023-03-01T07:09:55;37.75;;;19.55;;
2868;SDS011;1442;47.448;8.582;2023-03-01T07:12:23;32.55;;;18.63;;
2868;SDS011;1442;47.448;8.582;2023-03-01T07:14:50;38.65;;;19.55;;
2868;SDS011;1442;47.448;8.582;2023-03-01T07:17:17;40.35;;;18.65;;
2868;SDS011;1442;47.448;8.582;2023-03-01T07:19:44;37.95;;;19.85;;
2868;SDS011;1442;47.448;8.582;2023-03-01T07:22:11;37.60;;;18.60;;
2868;SDS011;1442;47.448;8.582;2023-03-01T07:24:40;34.88;;;19.58;;
2868;SDS011;1442;47.448;8.582;2023-03-01T07:27:07;37.30;;;19.17;;
2868;SDS011;1442;47.448;8.582;2023-03-01T07:29:34;41.65;;;18.20;;
2868;SDS011;1442;47.448;8.582;2023-03-01T07:32:02;35.60;;;17.55;;
2868;SDS011;1442;47.448;8.582;2023-03-01T07:34:32;39.22;;;19.38;;
2868;SDS011;1442;47.448;8.582;2023-03-01T07:37:00;39.60;;;18.98;;
2868;SDS011;1442;47.448;8.582;2023-03-01T07:39:27;41.92;;;18.10;;
2868;SDS011;1442;47.448;8.582;2023-03-01T07:41:55;45.30;;;20.02;;
2868;SDS011;1442;47.448;8.582;2023-03-01T07:44:23;36.47;;;18.90;;
2868;SDS011;1442;47.448;8.582;2023-03-01T07:46:50;36.47;;;18.48;;
2868;SDS011;1442;47.448;8.582;2023-03-01T07:49:21;37.55;;;19.38;;
2868;SDS011;1442;47.448;8.582;2023-03-01T07:51:48;37.60;;;19.00;;
2868;SDS011;1442;47.448;8.582;2023-03-01T07:54:15;40.28;;;19.20;;
2868;SDS011;1442;47.448;8.582;2023-03-01T07:56:43;39.30;;;19.35;;
2868;SDS011;1442;47.448;8.582;2023-03-01T07:59:11;35.95;;;18.08;;
2868;SDS011;1442;47.448;8.582;2023-03-01T08:01:38;39.33;;;19.23;;
2868;SDS011;1442;47.448;8.582;2023-03-01T08:04:06;33.88;;;18.02;;
2868;SDS011;1442;47.448;8.582;2023-03-01T08:06:34;37.38;;;18.02;;
2868;SDS011;1442;47.448;8.582;2023-03-01T08:09:02;35.22;;;18.35;;
2868;SDS011;1442;47.448;8.582;2023-03-01T08:11:29;37.08;;;20.45;;
2868;SDS011;1442;47.448;8.582;2023-03-01T08:13:56;38.63;;;19.55;;
2868;SDS011;1442;47.448;8.582;2023-03-01T08:16:25;38.58;;;19.45;;
2868;SDS011;1442;47.448;8.582;2023-03-01T08:18:52;36.80;;;19.20;;
2868;SDS011;1442;47.448;8.582;2023-03-01T08:21:21;37.78;;;18.73;;
2868;SDS011;1442;47.448;8.582;2023-03-01T08:23:48;36.38;;;18.35;;
2868;SDS011;1442;47.448;8.582;2023-03-01T08:26:17;36.67;;;18.42;;
2868;SDS011;1442;47.448;8.582;2023-03-01T08:28:44;33.38;;;17.52;;
2868;SDS011;1442;47.448;8.582;2023-03-01T08:31:16;33.05;;;17.83;;
2868;SDS011;1442;47.448;8.582;2023-03-01T08:33:45;32.13;;;17.60;;
2868;SDS011;1442;47.448;8.582;2023-03-01T08:36:15;35.20;;;17.93;;
2868;SDS011;1442;47.448;8.582;2023-03-01T08:38:42;35.75;;;18.25;;
2868;SDS011;1442;47.448;8.582;2023-03-01T08:41:10;35.47;;;18.27;;
2868;SDS011;1442;47.448;8.582;2023-03-01T08:43:38;31.55;;;17.05;;
2868;SDS011;1442;47.448;8.582;2023-03-01T08:46:05;36.35;;;18.45;;
2868;SDS011;1442;47.448;8.582;2023-03-01T08:48:32;35.67;;;18.35;;
2868;SDS011;1442;47.448;8.582;2023-03-01T08:51:07;40.28;;;17.67;;
2868;SDS011;1442;47.448;8.582;2023-03-01T08:53:35;36.17;;;17.65;;
2868;SDS011;1442;47.448;8.582;2023-03-01T08:56:02;37.38;;;18.08;;
2868;SDS011;1442;47.448;8.582;2023-03-01T08:58:30;38.42;;;19.20;;
2868;SDS011;1442;47.448;8.582;2023-03-01T09:00:57;36.15;;;18.30;;
2868;SDS011;1442;47.448;8.582;2023-03-01T09:03:24;40.53;;;19.88;;
2868;SDS011;1442;47.448;8.582;2023-03-01T09:05:51;38.83;;;19.50;;
2868;SDS011;1442;47.448;8.582;2023-03-01T09:08:20;38.45;;;17.98;;
2868;SDS011;1442;47.448;8.582;2023-03-01T09:10:47;36.63;;;19.67;;
2868;SDS011;1442;47.448;8.582;2023-03-01T09:13:14;40.63;;;19.05;;
2868;SDS011;1442;47.448;8.582;2023-03-01T09:15:41;41.80;;;19.42;;
2868;SDS011;1442;47.448;8.582;2023-03-01T09:18:09;34.30;;;18.20;;
2868;SDS011;1442;47.448;8.582;2023-03-01T09:20:36;35.00;;;19.35;;
2868;SDS011;1442;47.448;8.582;2023-03-01T09:23:03;43.72;;;18.85;;
2868;SDS011;1442;47.448;8.582;2023-03-01T09:25:31;36.88;;;18.65;;
2868;SDS011;1442;47.448;8.582;2023-03-01T09:28:00;38.50;;;19.00;;
2868;SDS011;1442;47.448;8.582;2023-03-01T09:30:28;36.47;;;18.92;;
2868;SDS011;1442;47.448;8.582;2023-03-01T09:32:56;35.47;;;18.83;;
2868;SDS011;1442;47.448;8.582;2023-03-01T09:35:24;34.95;;;18.75;;
2868;SDS011;1442;47.448;8.582;2023-03-01T09:37:51;36.90;;;18.13;;
2868;SDS011;1442;47.448;8.582;2023-03-01T09:40:20;37.72;;;19.30;;
2868;SDS011;1442;47.448;8.582;2023-03-01T09:42:51;35.38;;;18.60;;
2868;SDS011;1442;47.448;8.582;2023-03-01T09:45:23;36.00;;;18.55;;
2868;SDS011;1442;47.448;8.582;2023-03-01T09:47:52;35.80;;;19.05;;
2868;SDS011;1442;47.448;8.582;2023-03-01T09:50:20;38.90;;;19.70;;
2868;SDS011;1442;47.448;8.582;2023-03-01T09:52:48;35.20;;;18.25;;
2868;SDS011;1442;47.448;8.582;2023-03-01T09:55:20;33.60;;;17.02;;
2868;SDS011;1442;47.448;8.582;2023-03-01T09:57:50;36.28;;;19.98;;
2868;SDS011;1442;47.448;8.582;2023-03-01T10:00:21;40.45;;;19.48;;
2868;SDS011;1442;47.448;8.582;2023-03-01T10:02:51;38.83;;;18.88;;
2868;SDS011;1442;47.448;8.582;2023-03-01T10:05:24;36.03;;;18.80;;
2868;SDS011;1442;47.448;8.582;2023-03-01T10:07:55;40.22;;;19.40;;
2868;SDS011;1442;47.448;8.582;2023-03-01T10:10:26;45.85;;;19.08;;
2868;SDS011;1442;47.448;8.582;2023-03-01T10:12:56;33.28;;;17.25;;
2868;SDS011;1442;47.448;8.582;2023-03-01T10:15:25;38.15;;;18.60;;
2868;SDS011;1442;47.448;8.582;2023-03-01T10:17:57;35.58;;;18.15;;
2868;SDS011;1442;47.448;8.582;2023-03-01T10:20:30;32.03;;;16.98;;
2868;SDS011;1442;47.448;8.582;2023-03-01T10:23:00;39.88;;;18.52;;
2868;SDS011;1442;47.448;8.582;2023-03-01T10:25:41;36.00;;;18.42;;
2868;SDS011;1442;47.448;8.582;2023-03-01T10:28:16;34.97;;;17.88;;
2868;SDS011;1442;47.448;8.582;2023-03-01T10:30:43;35.50;;;17.88;;
2868;SDS011;1442;47.448;8.582;2023-03-01T10:33:13;33.30;;;17.58;;
2868;SDS011;1442;47.448;8.582;2023-03-01T10:35:42;35.33;;;17.83;;
2868;SDS011;1442;47.448;8.582;2023-03-01T10:38:10;35.85;;;18.67;;
2868;SDS011;1442;47.448;8.582;2023-03-01T10:40:49;34.63;;;17.60;;
2868;SDS011;1442;47.448;8.582;2023-03-01T10:43:18;33.80;;;16.90;;
2868;SDS011;1442;47.448;8.582;2023-03-01T10:45:46;39.58;;;19.58;;
2868;SDS011;1442;47.448;8.582;2023-03-01T10:48:14;36.03;;;18.50;;
2868;SDS011;1442;47.448;8.582;2023-03-01T10:50:41;39.40;;;18.67;;
2868;SDS011;1442;47.448;8.582;2023-03-01T10:53:20;34.40;;;17.08;;
2868;SDS011;1442;47.448;8.582;2023-03-01T10:55:56;36.65;;;19.30;;
2868;SDS011;1442;47.448;8.582;2023-03-01T10:58:25;38.78;;;18.00;;
2868;SDS011;1442;47.448;8.582;2023-03-01T11:00:53;36.72;;;19.15;;
2868;SDS011;1442;47.448;8.582;2023-03-01T11:03:24;39.75;;;18.42;;
2868;SDS011;1442;47.448;8.582;2023-03-01T11:05:53;38.65;;;18.52;;
2868;SDS011;1442;47.448;8.582;2023-03-01T11:08:37;35.83;;;17.30;;
2868;SDS011;1442;47.448;8.582;2023-03-01T11:11:05;34.42;;;17.95;;
2868;SDS011;1442;47.448;8.582;2023-03-01T11:13:35;36.13;;;17.75;;
2868;SDS011;1442;47.448;8.582;2023-03-01T11:16:12;35.22;;;18.02;;
2868;SDS011;1442;47.448;8.582;2023-03-01T11:18:39;35.45;;;18.17;;
2868;SDS011;1442;47.448;8.582;2023-03-01T11:21:06;33.95;;;17.17;;
2868;SDS011;1442;47.448;8.582;2023-03-01T11:23:44;35.03;;;17.52;;
2868;SDS011;1442;47.448;8.582;2023-03-01T11:26:12;40.25;;;16.98;;
2868;SDS011;1442;47.448;8.582;2023-03-01T11:28:41;36.30;;;18.33;;
2868;SDS011;1442;47.448;8.582;2023-03-01T11:31:09;33.85;;;17.90;;
2868;SDS011;1442;47.448;8.582;2023-03-01T11:33:39;34.97;;;17.60;;
2868;SDS011;1442;47.448;8.582;2023-03-01T11:36:10;34.78;;;17.10;;
2868;SDS011;1442;47.448;8.582;2023-03-01T11:38:40;31.83;;;17.52;;
2868;SDS011;1442;47.448;8.582;2023-03-01T11:41:08;36.38;;;17.70;;
2868;SDS011;1442;47.448;8.582;2023-03-01T11:43:41;32.78;;;17.13;;
2868;SDS011;1442;47.448;8.582;2023-03-01T11:46:27;36.83;;;18.55;;
2868;SDS011;1442;47.448;8.582;2023-03-01T11:48:59;37.20;;;16.45;;
2868;SDS011;1442;47.448;8.582;2023-03-01T11:51:37;32.60;;;17.92;;
2868;SDS011;1442;47.448;8.582;2023-03-01T11:54:06;33.95;;;18.10;;
2868;SDS011;1442;47.448;8.582;2023-03-01T11:56:38;33.80;;;18.33;;
2868;SDS011;1442;47.448;8.582;2023-03-01T12:01:51;38.20;;;18.48;;
2868;SDS011;1442;47.448;8.582;2023-03-01T12:04:36;34.35;;;18.73;;
2868;SDS011;1442;47.448;8.582;2023-03-01T12:07:09;36.90;;;18.65;;
2868;SDS011;1442;47.448;8.582;2023-03-01T12:09:45;35.35;;;18.70;;
2868;SDS011;1442;47.448;8.582;2023-03-01T12:14:46;31.00;;;16.83;;
2868;SDS011;1442;47.448;8.582;2023-03-01T12:20:22;40.45;;;20.08;;
2868;SDS011;1442;47.448;8.582;2023-03-01T12:22:57;37.28;;;19.13;;
2868;SDS011;1442;47.448;8.582;2023-03-01T12:25:28;39.75;;;18.88;;
2868;SDS011;1442;47.448;8.582;2023-03-01T12:28:02;37.78;;;18.65;;
2868;SDS011;1442;47.448;8.582;2023-03-01T12:30:35;37.20;;;18.75;;
2868;SDS011;1442;47.448;8.582;2023-03-01T12:33:10;32.08;;;17.95;;
2868;SDS011;1442;47.448;8.582;2023-03-01T12:35:49;32.60;;;17.50;;
2868;SDS011;1442;47.448;8.582;2023-03-01T12:38:25;34.13;;;17.67;;
2868;SDS011;1442;47.448;8.582;2023-03-01T12:41:10;33.40;;;17.95;;
2868;SDS011;1442;47.448;8.582;2023-03-01T12:43:42;32.97;;;18.20;;
2868;SDS011;1442;47.448;8.582;2023-03-01T12:46:16;38.13;;;18.88;;
2868;SDS011;1442;47.448;8.582;2023-03-01T12:48:49;34.60;;;17.88;;
2868;SDS011;1442;47.448;8.582;2023-03-01T12:51:20;34.42;;;18.60;;
2868;SDS011;1442;47.448;8.582;2023-03-01T12:53:50;35.00;;;18.95;;
2868;SDS011;1442;47.448;8.582;2023-03-01T12:56:17;34.95;;;18.75;;
2868;SDS011;1442;47.448;8.582;2023-03-01T12:58:49;33.70;;;17.73;;
2868;SDS011;1442;47.448;8.582;2023-03-01T13:01:22;35.42;;;18.02;;
2868;SDS011;1442;47.448;8.582;2023-03-01T13:06:39;41.33;;;17.83;;
2868;SDS011;1442;47.448;8.582;2023-03-01T13:09:10;36.00;;;19.08;;
2868;SDS011;1442;47.448;8.582;2023-03-01T13:11:40;34.30;;;17.83;;
2868;SDS011;1442;47.448;8.582;2023-03-01T13:14:34;34.05;;;17.73;;
2868;SDS011;1442;47.448;8.582;2023-03-01T13:17:02;37.17;;;18.23;;
2868;SDS011;1442;47.448;8.582;2023-03-01T13:19:29;35.85;;;18.05;;
2868;SDS011;1442;47.448;8.582;2023-03-01T13:21:58;36.95;;;16.67;;
2868;SDS011;1442;47.448;8.582;2023-03-01T13:24:26;37.35;;;18.85;;
2868;SDS011;1442;47.448;8.582;2023-03-01T13:27:10;44.05;;;18.67;;
2868;SDS011;1442;47.448;8.582;2023-03-01T13:29:44;34.65;;;18.15;;
2868;SDS011;1442;47.448;8.582;2023-03-01T13:32:22;42.75;;;18.20;;
2868;SDS011;1442;47.448;8.582;2023-03-01T13:34:56;37.88;;;17.60;;
2868;SDS011;1442;47.448;8.582;2023-03-01T13:37:25;35.08;;;17.83;;
2868;SDS011;1442;47.448;8.582;2023-03-01T13:39:55;37.05;;;17.77;;
2868;SDS011;1442;47.448;8.582;2023-03-01T13:42:41;37.72;;;19.40;;
2868;SDS011;1442;47.448;8.582;2023-03-01T13:45:15;36.70;;;18.35;;
2868;SDS011;1442;47.448;8.582;2023-03-01T13:47:43;38.97;;;18.20;;
2868;SDS011;1442;47.448;8.582;2023-03-01T13:50:18;43.83;;;18.38;;
2868;SDS011;1442;47.448;8.582;2023-03-01T13:52:50;35.63;;;18.40;;
2868;SDS011;1442;47.448;8.582;2023-03-01T13:55:19;40.78;;;19.10;;
2868;SDS011;1442;47.448;8.582;2023-03-01T13:57:48;33.83;;;17.30;;
2868;SDS011;1442;47.448;8.582;2023-03-01T14:03:11;40.80;;;18.77;;
2868;SDS011;1442;47.448;8.582;2023-03-01T14:05:39;40.20;;;18.50;;
2868;SDS011;1442;47.448;8.582;2023-03-01T14:08:18;41.38;;;19.70;;
2868;SDS011;1442;47.448;8.582;2023-03-01T14:10:48;35.72;;;17.83;;
2868;SDS011;1442;47.448;8.582;2023-03-01T14:13:24;34.70;;;17.42;;
2868;SDS011;1442;47.448;8.582;2023-03-01T14:16:00;39.92;;;18.77;;
2868;SDS011;1442;47.448;8.582;2023-03-01T14:18:33;36.97;;;16.95;;
2868;SDS011;1442;47.448;8.582;2023-03-01T14:21:01;46.13;;;18.83;;
2868;SDS011;1442;47.448;8.582;2023-03-01T14:23:35;32.35;;;17.60;;
2868;SDS011;1442;47.448;8.582;2023-03-01T14:26:05;29.33;;;15.73;;
2868;SDS011;1442;47.448;8.582;2023-03-01T14:28:37;34.30;;;18.27;;
2868;SDS011;1442;47.448;8.582;2023-03-01T14:33:46;32.58;;;17.20;;
2868;SDS011;1442;47.448;8.582;2023-03-01T14:36:25;29.45;;;16.63;;
2868;SDS011;1442;47.448;8.582;2023-03-01T14:38:54;32.40;;;17.85;;
2868;SDS011;1442;47.448;8.582;2023-03-01T14:41:23;34.08;;;17.42;;
2868;SDS011;1442;47.448;8.582;2023-03-01T14:43:52;40.17;;;18.77;;
2868;SDS011;1442;47.448;8.582;2023-03-01T14:46:23;34.35;;;18.23;;
2868;SDS011;1442;47.448;8.582;2023-03-01T14:48:52;31.20;;;17.35;;
2868;SDS011;1442;47.448;8.582;2023-03-01T14:51:20;35.50;;;18.88;;
2868;SDS011;1442;47.448;8.582;2023-03-01T14:53:47;38.38;;;18.33;;
2868;SDS011;1442;47.448;8.582;2023-03-01T14:56:16;31.58;;;18.05;;
2868;SDS011;1442;47.448;8.582;2023-03-01T14:58:44;32.90;;;18.75;;
2868;SDS011;1442;47.448;8.582;2023-03-01T15:01:13;32.97;;;17.73;;
2868;SDS011;1442;47.448;8.582;2023-03-01T15:03:42;33.58;;;18.10;;
2868;SDS011;1442;47.448;8.582;2023-03-01T15:06:10;32.08;;;18.15;;
2868;SDS011;1442;47.448;8.582;2023-03-01T15:08:39;37.40;;;17.98;;
2868;SDS011;1442;47.448;8.582;2023-03-01T15:11:17;31.17;;;16.50;;
2868;SDS011;1442;47.448;8.582;2023-03-01T15:13:47;35.28;;;16.95;;
2868;SDS011;1442;47.448;8.582;2023-03-01T15:16:15;34.97;;;18.17;;
2868;SDS011;1442;47.448;8.582;2023-03-01T15:18:43;32.05;;;17.80;;